sensor_id;sensor_type;location;lat;lon;timestamp;P1;durP1;ratioP1;P2;durP2;ratioP2
19585;SDS011;9939;49.246;9.106;2022-09-01T00:01:51;7.23;;;4.27;;
19585;SDS011;9939;49.246;9.106;2022-09-01T00:04:20;5.50;;;3.97;;
19585;SDS011;9939;49.246;9.106;2022-09-01T00:06:51;6.90;;;4.43;;
19585;SDS011;9939;49.246;9.106;2022-09-01T00:09:21;5.40;;;3.80;;
19585;SDS011;9939;49.246;9.106;2022-09-01T00:11:50;6.90;;;4.17;;
19585;SDS011;9939;49.246;9.106;2022-09-01T00:14:20;9.53;;;4.57;;
19585;SDS011;9939;49.246;9.106;2022-09-01T00:17:00;7.80;;;4.37;;
19585;SDS011;9939;49.246;9.106;2022-09-01T00:19:30;6.13;;;4.00;;
19585;SDS011;9939;49.246;9.106;2022-09-01T00:21:59;6.87;;;4.03;;
19585;SDS011;9939;49.246;9.106;2022-09-01T00:24:26;7.47;;;4.37;;
19585;SDS011;9939;49.246;9.106;2022-09-01T00:26:54;9.63;;;4.63;;
19585;SDS011;9939;49.246;9.106;2022-09-01T00:29:23;7.73;;;4.50;;
19585;SDS011;9939;49.246;9.106;2022-09-01T00:31:51;7.87;;;5.07;;
19585;SDS011;9939;49.246;9.106;2022-09-01T00:34:18;6.93;;;4.50;;
19585;SDS011;9939;49.246;9.106;2022-09-01T00:36:45;7.27;;;4.40;;
19585;SDS011;9939;49.246;9.106;2022-09-01T00:39:13;7.43;;;4.30;;
19585;SDS011;9939;49.246;9.106;2022-09-01T00:41:41;7.07;;;4.93;;
19585;SDS011;9939;49.246;9.106;2022-09-01T00:44:12;7.60;;;5.20;;
19585;SDS011;9939;49.246;9.106;2022-09-01T00:46:42;7.03;;;4.80;;
19585;SDS011;9939;49.246;9.106;2022-09-01T00:52:04;8.63;;;5.07;;
19585;SDS011;9939;49.246;9.106;2022-09-01T00:54:54;7.40;;;4.83;;
19585;SDS011;9939;49.246;9.106;2022-09-01T00:57:25;8.37;;;5.30;;
19585;SDS011;9939;49.246;9.106;2022-09-01T00:59:55;7.17;;;5.03;;
19585;SDS011;9939;49.246;9.106;2022-09-01T01:02:26;8.33;;;5.20;;
19585;SDS011;9939;49.246;9.106;2022-09-01T01:04:53;9.23;;;5.10;;
19585;SDS011;9939;49.246;9.106;2022-09-01T01:07:23;8.63;;;5.50;;
19585;SDS011;9939;49.246;9.106;2022-09-01T01:09:52;9.10;;;5.40;;
19585;SDS011;9939;49.246;9.106;2022-09-01T01:12:19;7.97;;;5.40;;
19585;SDS011;9939;49.246;9.106;2022-09-01T01:14:47;8.80;;;5.50;;
19585;SDS011;9939;49.246;9.106;2022-09-01T01:17:17;9.93;;;5.70;;
19585;SDS011;9939;49.246;9.106;2022-09-01T01:19:46;9.30;;;5.93;;
19585;SDS011;9939;49.246;9.106;2022-09-01T01:22:41;8.77;;;5.40;;
19585;SDS011;9939;49.246;9.106;2022-09-01T01:28:02;11.40;;;6.03;;
19585;SDS011;9939;49.246;9.106;2022-09-01T01:30:33;10.37;;;6.80;;
19585;SDS011;9939;49.246;9.106;2022-09-01T01:33:02;11.67;;;7.27;;
19585;SDS011;9939;49.246;9.106;2022-09-01T01:35:30;11.17;;;5.93;;
19585;SDS011;9939;49.246;9.106;2022-09-01T01:37:59;9.23;;;6.13;;
19585;SDS011;9939;49.246;9.106;2022-09-01T01:40:28;10.50;;;6.50;;
19585;SDS011;9939;49.246;9.106;2022-09-01T01:42:55;9.90;;;6.27;;
19585;SDS011;9939;49.246;9.106;2022-09-01T01:45:24;8.73;;;6.03;;
19585;SDS011;9939;49.246;9.106;2022-09-01T01:47:51;9.93;;;5.97;;
19585;SDS011;9939;49.246;9.106;2022-09-01T01:50:22;8.30;;;5.70;;
19585;SDS011;9939;49.246;9.106;2022-09-01T01:52:57;9.80;;;6.40;;
19585;SDS011;9939;49.246;9.106;2022-09-01T01:55:26;13.37;;;6.73;;
19585;SDS011;9939;49.246;9.106;2022-09-01T01:57:57;9.13;;;6.57;;
19585;SDS011;9939;49.246;9.106;2022-09-01T02:00:27;11.70;;;6.73;;
19585;SDS011;9939;49.246;9.106;2022-09-01T02:03:01;8.73;;;5.93;;
19585;SDS011;9939;49.246;9.106;2022-09-01T02:05:30;11.63;;;7.13;;
19585;SDS011;9939;49.246;9.106;2022-09-01T02:07:59;10.60;;;6.70;;
19585;SDS011;9939;49.246;9.106;2022-09-01T02:10:33;10.50;;;7.07;;
19585;SDS011;9939;49.246;9.106;2022-09-01T02:13:04;10.03;;;6.90;;
19585;SDS011;9939;49.246;9.106;2022-09-01T02:15:37;11.57;;;7.03;;
19585;SDS011;9939;49.246;9.106;2022-09-01T02:18:10;13.10;;;7.47;;
19585;SDS011;9939;49.246;9.106;2022-09-01T02:20:50;12.20;;;7.40;;
19585;SDS011;9939;49.246;9.106;2022-09-01T02:23:18;14.47;;;7.30;;
19585;SDS011;9939;49.246;9.106;2022-09-01T02:25:54;14.03;;;8.13;;
19585;SDS011;9939;49.246;9.106;2022-09-01T02:28:45;11.90;;;7.17;;
19585;SDS011;9939;49.246;9.106;2022-09-01T02:31:24;10.80;;;7.03;;
19585;SDS011;9939;49.246;9.106;2022-09-01T02:33:55;12.23;;;8.20;;
19585;SDS011;9939;49.246;9.106;2022-09-01T02:36:23;10.80;;;7.07;;
19585;SDS011;9939;49.246;9.106;2022-09-01T02:38:51;13.23;;;7.57;;
19585;SDS011;9939;49.246;9.106;2022-09-01T02:41:22;11.87;;;7.43;;
19585;SDS011;9939;49.246;9.106;2022-09-01T02:43:53;13.73;;;8.20;;
19585;SDS011;9939;49.246;9.106;2022-09-01T02:46:20;13.93;;;7.70;;
19585;SDS011;9939;49.246;9.106;2022-09-01T02:48:51;17.40;;;8.30;;
19585;SDS011;9939;49.246;9.106;2022-09-01T02:51:20;13.67;;;8.70;;
19585;SDS011;9939;49.246;9.106;2022-09-01T02:53:52;12.73;;;7.77;;
19585;SDS011;9939;49.246;9.106;2022-09-01T02:56:20;12.27;;;7.97;;
19585;SDS011;9939;49.246;9.106;2022-09-01T02:58:52;11.93;;;7.80;;
19585;SDS011;9939;49.246;9.106;2022-09-01T03:01:26;12.57;;;7.93;;
19585;SDS011;9939;49.246;9.106;2022-09-01T03:04:00;11.53;;;7.63;;
19585;SDS011;9939;49.246;9.106;2022-09-01T03:06:31;12.33;;;7.80;;
19585;SDS011;9939;49.246;9.106;2022-09-01T03:09:00;14.23;;;7.77;;
19585;SDS011;9939;49.246;9.106;2022-09-01T03:11:29;13.20;;;8.43;;
19585;SDS011;9939;49.246;9.106;2022-09-01T03:13:57;14.00;;;8.63;;
19585;SDS011;9939;49.246;9.106;2022-09-01T03:16:26;11.93;;;8.20;;
19585;SDS011;9939;49.246;9.106;2022-09-01T03:18:56;11.93;;;7.90;;
19585;SDS011;9939;49.246;9.106;2022-09-01T03:21:24;14.53;;;7.93;;
19585;SDS011;9939;49.246;9.106;2022-09-01T03:23:52;11.10;;;7.67;;
19585;SDS011;9939;49.246;9.106;2022-09-01T03:26:19;11.40;;;7.57;;
19585;SDS011;9939;49.246;9.106;2022-09-01T03:28:51;12.37;;;7.57;;
19585;SDS011;9939;49.246;9.106;2022-09-01T03:31:18;13.53;;;8.20;;
19585;SDS011;9939;49.246;9.106;2022-09-01T03:33:47;11.57;;;7.53;;
19585;SDS011;9939;49.246;9.106;2022-09-01T03:36:23;12.40;;;7.63;;
19585;SDS011;9939;49.246;9.106;2022-09-01T03:38:51;11.57;;;7.87;;
19585;SDS011;9939;49.246;9.106;2022-09-01T03:41:20;13.07;;;7.90;;
19585;SDS011;9939;49.246;9.106;2022-09-01T03:43:51;15.10;;;7.83;;
19585;SDS011;9939;49.246;9.106;2022-09-01T03:46:26;15.00;;;8.37;;
19585;SDS011;9939;49.246;9.106;2022-09-01T03:49:02;12.60;;;8.23;;
19585;SDS011;9939;49.246;9.106;2022-09-01T03:51:35;13.17;;;7.47;;
19585;SDS011;9939;49.246;9.106;2022-09-01T03:54:06;11.27;;;7.47;;
19585;SDS011;9939;49.246;9.106;2022-09-01T03:56:33;14.03;;;7.90;;
19585;SDS011;9939;49.246;9.106;2022-09-01T03:59:01;11.63;;;7.60;;
19585;SDS011;9939;49.246;9.106;2022-09-01T04:01:29;11.53;;;7.43;;
19585;SDS011;9939;49.246;9.106;2022-09-01T04:04:04;12.47;;;8.30;;
19585;SDS011;9939;49.246;9.106;2022-09-01T04:06:32;13.73;;;7.43;;
19585;SDS011;9939;49.246;9.106;2022-09-01T04:08:59;14.27;;;8.80;;
19585;SDS011;9939;49.246;9.106;2022-09-01T04:11:31;13.57;;;8.70;;
19585;SDS011;9939;49.246;9.106;2022-09-01T04:13:59;13.27;;;7.30;;
19585;SDS011;9939;49.246;9.106;2022-09-01T04:16:31;14.00;;;8.37;;
19585;SDS011;9939;49.246;9.106;2022-09-01T04:19:19;15.30;;;8.27;;
19585;SDS011;9939;49.246;9.106;2022-09-01T04:21:53;11.47;;;7.73;;
19585;SDS011;9939;49.246;9.106;2022-09-01T04:24:25;12.10;;;7.47;;
19585;SDS011;9939;49.246;9.106;2022-09-01T04:26:55;13.77;;;8.20;;
19585;SDS011;9939;49.246;9.106;2022-09-01T04:29:24;12.53;;;7.97;;
19585;SDS011;9939;49.246;9.106;2022-09-01T04:32:00;13.33;;;8.37;;
19585;SDS011;9939;49.246;9.106;2022-09-01T04:34:36;12.43;;;8.10;;
19585;SDS011;9939;49.246;9.106;2022-09-01T04:37:08;12.03;;;8.00;;
19585;SDS011;9939;49.246;9.106;2022-09-01T04:39:39;13.27;;;7.37;;
19585;SDS011;9939;49.246;9.106;2022-09-01T04:42:19;12.50;;;8.10;;
19585;SDS011;9939;49.246;9.106;2022-09-01T04:44:50;14.07;;;7.90;;
19585;SDS011;9939;49.246;9.106;2022-09-01T04:47:21;13.13;;;8.27;;
19585;SDS011;9939;49.246;9.106;2022-09-01T04:50:04;12.83;;;7.83;;
19585;SDS011;9939;49.246;9.106;2022-09-01T04:52:42;11.60;;;7.70;;
19585;SDS011;9939;49.246;9.106;2022-09-01T04:55:22;10.63;;;7.53;;
19585;SDS011;9939;49.246;9.106;2022-09-01T04:57:50;11.50;;;7.50;;
19585;SDS011;9939;49.246;9.106;2022-09-01T05:00:18;11.83;;;7.63;;
19585;SDS011;9939;49.246;9.106;2022-09-01T05:02:51;13.03;;;7.83;;
19585;SDS011;9939;49.246;9.106;2022-09-01T05:05:44;13.77;;;9.23;;
19585;SDS011;9939;49.246;9.106;2022-09-01T05:08:13;13.80;;;8.67;;
19585;SDS011;9939;49.246;9.106;2022-09-01T05:10:52;14.70;;;8.77;;
19585;SDS011;9939;49.246;9.106;2022-09-01T05:13:32;12.23;;;7.77;;
19585;SDS011;9939;49.246;9.106;2022-09-01T05:16:02;15.70;;;8.83;;
19585;SDS011;9939;49.246;9.106;2022-09-01T05:18:39;14.63;;;8.23;;
19585;SDS011;9939;49.246;9.106;2022-09-01T05:21:11;13.67;;;8.70;;
19585;SDS011;9939;49.246;9.106;2022-09-01T05:23:42;13.47;;;8.00;;
19585;SDS011;9939;49.246;9.106;2022-09-01T05:26:12;11.60;;;8.17;;
19585;SDS011;9939;49.246;9.106;2022-09-01T05:28:45;16.70;;;8.97;;
19585;SDS011;9939;49.246;9.106;2022-09-01T05:31:15;14.10;;;8.70;;
19585;SDS011;9939;49.246;9.106;2022-09-01T05:33:46;13.10;;;8.37;;
19585;SDS011;9939;49.246;9.106;2022-09-01T05:36:20;14.10;;;8.80;;
19585;SDS011;9939;49.246;9.106;2022-09-01T05:38:50;13.13;;;8.80;;
19585;SDS011;9939;49.246;9.106;2022-09-01T05:41:18;15.73;;;9.30;;
19585;SDS011;9939;49.246;9.106;2022-09-01T05:43:47;15.07;;;9.33;;
19585;SDS011;9939;49.246;9.106;2022-09-01T05:46:24;16.23;;;9.60;;
19585;SDS011;9939;49.246;9.106;2022-09-01T05:48:54;16.53;;;10.73;;
19585;SDS011;9939;49.246;9.106;2022-09-01T05:51:24;14.93;;;9.37;;
19585;SDS011;9939;49.246;9.106;2022-09-01T05:54:17;14.77;;;8.70;;
19585;SDS011;9939;49.246;9.106;2022-09-01T05:56:48;16.13;;;9.80;;
19585;SDS011;9939;49.246;9.106;2022-09-01T05:59:24;17.60;;;10.53;;
19585;SDS011;9939;49.246;9.106;2022-09-01T06:01:57;15.30;;;10.07;;
19585;SDS011;9939;49.246;9.106;2022-09-01T06:04:26;13.80;;;9.70;;
19585;SDS011;9939;49.246;9.106;2022-09-01T06:07:00;16.13;;;9.63;;
19585;SDS011;9939;49.246;9.106;2022-09-01T06:09:37;14.57;;;9.73;;
19585;SDS011;9939;49.246;9.106;2022-09-01T06:12:06;14.40;;;9.57;;
19585;SDS011;9939;49.246;9.106;2022-09-01T06:14:35;14.63;;;8.73;;
19585;SDS011;9939;49.246;9.106;2022-09-01T06:17:02;15.10;;;9.67;;
19585;SDS011;9939;49.246;9.106;2022-09-01T06:19:29;16.17;;;10.87;;
19585;SDS011;9939;49.246;9.106;2022-09-01T06:22:03;18.47;;;10.37;;
19585;SDS011;9939;49.246;9.106;2022-09-01T06:24:30;15.07;;;10.03;;
19585;SDS011;9939;49.246;9.106;2022-09-01T06:26:57;17.33;;;10.67;;
19585;SDS011;9939;49.246;9.106;2022-09-01T06:29:25;16.80;;;11.40;;
19585;SDS011;9939;49.246;9.106;2022-09-01T06:31:52;16.53;;;11.47;;
19585;SDS011;9939;49.246;9.106;2022-09-01T06:34:19;21.27;;;11.13;;
19585;SDS011;9939;49.246;9.106;2022-09-01T06:36:47;18.57;;;11.70;;
19585;SDS011;9939;49.246;9.106;2022-09-01T06:39:19;18.77;;;10.97;;
19585;SDS011;9939;49.246;9.106;2022-09-01T06:41:51;17.73;;;10.73;;
19585;SDS011;9939;49.246;9.106;2022-09-01T06:44:23;21.33;;;11.47;;
19585;SDS011;9939;49.246;9.106;2022-09-01T06:46:57;20.07;;;11.50;;
19585;SDS011;9939;49.246;9.106;2022-09-01T06:49:27;16.63;;;10.97;;
19585;SDS011;9939;49.246;9.106;2022-09-01T06:52:10;18.30;;;10.93;;
19585;SDS011;9939;49.246;9.106;2022-09-01T06:54:39;16.53;;;11.00;;
19585;SDS011;9939;49.246;9.106;2022-09-01T06:57:10;17.30;;;10.63;;
19585;SDS011;9939;49.246;9.106;2022-09-01T06:59:57;16.53;;;10.50;;
19585;SDS011;9939;49.246;9.106;2022-09-01T07:02:24;17.00;;;10.93;;
19585;SDS011;9939;49.246;9.106;2022-09-01T07:05:11;17.00;;;10.97;;
19585;SDS011;9939;49.246;9.106;2022-09-01T07:08:02;19.93;;;10.70;;
19585;SDS011;9939;49.246;9.106;2022-09-01T07:10:58;18.50;;;11.47;;
19585;SDS011;9939;49.246;9.106;2022-09-01T07:13:47;19.27;;;10.90;;
19585;SDS011;9939;49.246;9.106;2022-09-01T07:16:36;17.43;;;10.13;;
19585;SDS011;9939;49.246;9.106;2022-09-01T07:19:26;15.77;;;10.67;;
19585;SDS011;9939;49.246;9.106;2022-09-01T07:22:13;16.93;;;10.73;;
19585;SDS011;9939;49.246;9.106;2022-09-01T07:25:00;17.07;;;10.63;;
19585;SDS011;9939;49.246;9.106;2022-09-01T07:28:09;18.93;;;11.13;;
19585;SDS011;9939;49.246;9.106;2022-09-01T07:30:42;18.70;;;10.27;;
19585;SDS011;9939;49.246;9.106;2022-09-01T07:33:16;16.67;;;11.17;;
19585;SDS011;9939;49.246;9.106;2022-09-01T07:36:07;17.83;;;9.97;;
19585;SDS011;9939;49.246;9.106;2022-09-01T07:38:55;13.77;;;9.27;;
19585;SDS011;9939;49.246;9.106;2022-09-01T07:41:56;18.13;;;9.70;;
19585;SDS011;9939;49.246;9.106;2022-09-01T07:45:02;16.80;;;9.50;;
19585;SDS011;9939;49.246;9.106;2022-09-01T07:47:56;14.00;;;9.37;;
19585;SDS011;9939;49.246;9.106;2022-09-01T07:50:33;17.90;;;9.97;;
19585;SDS011;9939;49.246;9.106;2022-09-01T07:53:24;17.80;;;10.07;;
19585;SDS011;9939;49.246;9.106;2022-09-01T07:55:54;16.40;;;9.47;;
19585;SDS011;9939;49.246;9.106;2022-09-01T07:58:23;14.80;;;9.47;;
19585;SDS011;9939;49.246;9.106;2022-09-01T08:00:59;17.30;;;10.20;;
19585;SDS011;9939;49.246;9.106;2022-09-01T08:03:29;13.13;;;8.57;;
19585;SDS011;9939;49.246;9.106;2022-09-01T08:06:02;14.13;;;9.00;;
19585;SDS011;9939;49.246;9.106;2022-09-01T08:08:37;13.30;;;8.63;;
19585;SDS011;9939;49.246;9.106;2022-09-01T08:11:06;13.97;;;9.93;;
19585;SDS011;9939;49.246;9.106;2022-09-01T08:13:34;14.87;;;9.07;;
19585;SDS011;9939;49.246;9.106;2022-09-01T08:16:08;14.70;;;8.53;;
19585;SDS011;9939;49.246;9.106;2022-09-01T08:18:45;14.63;;;8.80;;
19585;SDS011;9939;49.246;9.106;2022-09-01T08:21:26;15.23;;;8.57;;
19585;SDS011;9939;49.246;9.106;2022-09-01T08:24:00;14.37;;;8.00;;
19585;SDS011;9939;49.246;9.106;2022-09-01T08:26:31;13.37;;;7.63;;
19585;SDS011;9939;49.246;9.106;2022-09-01T08:29:00;15.10;;;8.33;;
19585;SDS011;9939;49.246;9.106;2022-09-01T08:31:33;14.77;;;7.50;;
19585;SDS011;9939;49.246;9.106;2022-09-01T08:34:01;11.67;;;7.27;;
19585;SDS011;9939;49.246;9.106;2022-09-01T08:36:32;11.97;;;7.30;;
19585;SDS011;9939;49.246;9.106;2022-09-01T08:39:01;11.90;;;8.20;;
19585;SDS011;9939;49.246;9.106;2022-09-01T08:47:04;10.37;;;6.73;;
19585;SDS011;9939;49.246;9.106;2022-09-01T08:49:39;9.23;;;6.50;;
19585;SDS011;9939;49.246;9.106;2022-09-01T08:52:33;9.80;;;6.60;;
19585;SDS011;9939;49.246;9.106;2022-09-01T08:58:00;9.00;;;6.30;;
19585;SDS011;9939;49.246;9.106;2022-09-01T09:00:57;10.13;;;6.57;;
19585;SDS011;9939;49.246;9.106;2022-09-01T09:06:19;10.00;;;6.63;;
19585;SDS011;9939;49.246;9.106;2022-09-01T09:09:01;9.97;;;6.20;;
19585;SDS011;9939;49.246;9.106;2022-09-01T09:14:43;9.83;;;6.03;;
19585;SDS011;9939;49.246;9.106;2022-09-01T09:17:13;9.20;;;6.47;;
19585;SDS011;9939;49.246;9.106;2022-09-01T09:19:45;9.37;;;5.47;;
19585;SDS011;9939;49.246;9.106;2022-09-01T09:22:13;8.57;;;6.27;;
19585;SDS011;9939;49.246;9.106;2022-09-01T09:27:51;9.40;;;5.47;;
19585;SDS011;9939;49.246;9.106;2022-09-01T09:30:26;8.43;;;4.77;;
19585;SDS011;9939;49.246;9.106;2022-09-01T09:32:56;7.00;;;4.70;;
19585;SDS011;9939;49.246;9.106;2022-09-01T09:35:49;7.17;;;4.63;;
19585;SDS011;9939;49.246;9.106;2022-09-01T09:38:19;7.83;;;4.60;;
19585;SDS011;9939;49.246;9.106;2022-09-01T09:40:55;7.33;;;4.30;;
19585;SDS011;9939;49.246;9.106;2022-09-01T09:54:36;6.95;;;3.97;;
19585;SDS011;9939;49.246;9.106;2022-09-01T09:59:56;5.20;;;3.65;;
19585;SDS011;9939;49.246;9.106;2022-09-01T10:02:38;6.55;;;4.38;;
19585;SDS011;9939;49.246;9.106;2022-09-01T10:05:31;8.63;;;4.40;;
19585;SDS011;9939;49.246;9.106;2022-09-01T10:11:05;9.27;;;3.93;;
19585;SDS011;9939;49.246;9.106;2022-09-01T10:13:33;6.20;;;4.37;;
19585;SDS011;9939;49.246;9.106;2022-09-01T10:16:04;5.87;;;4.10;;
19585;SDS011;9939;49.246;9.106;2022-09-01T10:18:38;7.07;;;4.23;;
19585;SDS011;9939;49.246;9.106;2022-09-01T10:23:42;6.50;;;4.37;;
19585;SDS011;9939;49.246;9.106;2022-09-01T10:26:18;7.13;;;4.37;;
19585;SDS011;9939;49.246;9.106;2022-09-01T10:29:12;6.80;;;4.10;;
19585;SDS011;9939;49.246;9.106;2022-09-01T10:31:41;7.23;;;4.40;;
19585;SDS011;9939;49.246;9.106;2022-09-01T10:34:10;8.53;;;5.00;;
19585;SDS011;9939;49.246;9.106;2022-09-01T10:36:45;7.43;;;4.50;;
19585;SDS011;9939;49.246;9.106;2022-09-01T10:39:22;7.60;;;4.70;;
19585;SDS011;9939;49.246;9.106;2022-09-01T10:41:57;6.97;;;4.17;;
19585;SDS011;9939;49.246;9.106;2022-09-01T10:44:33;6.27;;;4.13;;
19585;SDS011;9939;49.246;9.106;2022-09-01T10:47:24;5.57;;;3.77;;
19585;SDS011;9939;49.246;9.106;2022-09-01T10:50:04;6.27;;;4.20;;
19585;SDS011;9939;49.246;9.106;2022-09-01T10:53:00;6.00;;;4.13;;
19585;SDS011;9939;49.246;9.106;2022-09-01T10:55:38;6.47;;;3.77;;
19585;SDS011;9939;49.246;9.106;2022-09-01T11:01:36;5.07;;;3.20;;
19585;SDS011;9939;49.246;9.106;2022-09-01T11:04:22;5.03;;;3.33;;
19585;SDS011;9939;49.246;9.106;2022-09-01T11:07:28;6.20;;;4.13;;
19585;SDS011;9939;49.246;9.106;2022-09-01T11:10:38;6.33;;;4.10;;
19585;SDS011;9939;49.246;9.106;2022-09-01T11:16:21;7.63;;;4.43;;
19585;SDS011;9939;49.246;9.106;2022-09-01T11:21:43;6.80;;;3.87;;
19585;SDS011;9939;49.246;9.106;2022-09-01T11:27:10;7.13;;;4.03;;
19585;SDS011;9939;49.246;9.106;2022-09-01T11:29:59;5.93;;;3.70;;
19585;SDS011;9939;49.246;9.106;2022-09-01T11:32:34;6.38;;;3.85;;
19585;SDS011;9939;49.246;9.106;2022-09-01T11:35:13;5.90;;;3.70;;
19585;SDS011;9939;49.246;9.106;2022-09-01T11:37:46;7.45;;;3.85;;
19585;SDS011;9939;49.246;9.106;2022-09-01T11:40:18;5.90;;;3.45;;
19585;SDS011;9939;49.246;9.106;2022-09-01T11:42:59;6.15;;;3.83;;
19585;SDS011;9939;49.246;9.106;2022-09-01T11:46:04;4.55;;;3.20;;
19585;SDS011;9939;49.246;9.106;2022-09-01T11:48:45;4.85;;;3.10;;
19585;SDS011;9939;49.246;9.106;2022-09-01T11:51:17;6.00;;;3.28;;
19585;SDS011;9939;49.246;9.106;2022-09-01T11:53:46;4.60;;;3.25;;
19585;SDS011;9939;49.246;9.106;2022-09-01T11:56:17;5.65;;;3.53;;
19585;SDS011;9939;49.246;9.106;2022-09-01T11:58:50;5.07;;;3.63;;
19585;SDS011;9939;49.246;9.106;2022-09-01T12:01:21;5.70;;;3.63;;
19585;SDS011;9939;49.246;9.106;2022-09-01T12:04:43;7.47;;;3.97;;
19585;SDS011;9939;49.246;9.106;2022-09-01T12:07:04;5.97;;;3.63;;
19585;SDS011;9939;49.246;9.106;2022-09-01T12:09:37;7.80;;;3.67;;
19585;SDS011;9939;49.246;9.106;2022-09-01T12:12:43;5.93;;;3.43;;
19585;SDS011;9939;49.246;9.106;2022-09-01T12:15:07;5.88;;;3.80;;
19585;SDS011;9939;49.246;9.106;2022-09-01T12:17:45;4.65;;;3.00;;
19585;SDS011;9939;49.246;9.106;2022-09-01T12:20:19;5.47;;;3.25;;
19585;SDS011;9939;49.246;9.106;2022-09-01T12:22:55;5.22;;;3.30;;
19585;SDS011;9939;49.246;9.106;2022-09-01T12:25:25;5.88;;;3.72;;
19585;SDS011;9939;49.246;9.106;2022-09-01T12:28:01;6.65;;;3.53;;
19585;SDS011;9939;49.246;9.106;2022-09-01T12:30:31;8.80;;;3.47;;
19585;SDS011;9939;49.246;9.106;2022-09-01T12:33:05;4.28;;;3.17;;
19585;SDS011;9939;49.246;9.106;2022-09-01T12:35:50;4.57;;;3.08;;
19585;SDS011;9939;49.246;9.106;2022-09-01T12:38:23;4.15;;;2.67;;
19585;SDS011;9939;49.246;9.106;2022-09-01T12:40:52;4.32;;;3.00;;
19585;SDS011;9939;49.246;9.106;2022-09-01T12:43:27;5.30;;;3.28;;
19585;SDS011;9939;49.246;9.106;2022-09-01T12:45:54;4.10;;;3.05;;
19585;SDS011;9939;49.246;9.106;2022-09-01T12:50:57;5.10;;;2.65;;
19585;SDS011;9939;49.246;9.106;2022-09-01T12:53:28;3.28;;;2.72;;
19585;SDS011;9939;49.246;9.106;2022-09-01T12:55:59;6.60;;;3.10;;
19585;SDS011;9939;49.246;9.106;2022-09-01T12:58:48;4.60;;;2.50;;
19585;SDS011;9939;49.246;9.106;2022-09-01T13:01:24;4.03;;;2.30;;
19585;SDS011;9939;49.246;9.106;2022-09-01T13:06:46;2.97;;;2.05;;
19585;SDS011;9939;49.246;9.106;2022-09-01T13:09:15;3.00;;;2.30;;
19585;SDS011;9939;49.246;9.106;2022-09-01T13:11:42;2.78;;;2.30;;
19585;SDS011;9939;49.246;9.106;2022-09-01T13:14:30;2.85;;;2.28;;
19585;SDS011;9939;49.246;9.106;2022-09-01T13:16:57;5.47;;;2.70;;
19585;SDS011;9939;49.246;9.106;2022-09-01T13:19:24;3.47;;;2.60;;
19585;SDS011;9939;49.246;9.106;2022-09-01T13:21:55;3.72;;;2.38;;
19585;SDS011;9939;49.246;9.106;2022-09-01T13:24:22;2.95;;;2.38;;
19585;SDS011;9939;49.246;9.106;2022-09-01T13:26:55;3.45;;;2.80;;
19585;SDS011;9939;49.246;9.106;2022-09-01T13:29:42;7.85;;;3.10;;
19585;SDS011;9939;49.246;9.106;2022-09-01T13:32:10;3.85;;;2.53;;
19585;SDS011;9939;49.246;9.106;2022-09-01T13:34:47;4.07;;;2.63;;
19585;SDS011;9939;49.246;9.106;2022-09-01T13:37:18;3.60;;;2.67;;
19585;SDS011;9939;49.246;9.106;2022-09-01T13:39:46;5.47;;;3.33;;
19585;SDS011;9939;49.246;9.106;2022-09-01T13:42:14;6.22;;;3.50;;
19585;SDS011;9939;49.246;9.106;2022-09-01T13:44:41;5.30;;;3.30;;
19585;SDS011;9939;49.246;9.106;2022-09-01T13:47:09;4.10;;;2.83;;
19585;SDS011;9939;49.246;9.106;2022-09-01T13:49:57;4.65;;;2.90;;
19585;SDS011;9939;49.246;9.106;2022-09-01T13:52:39;4.90;;;2.70;;
19585;SDS011;9939;49.246;9.106;2022-09-01T13:55:13;5.50;;;2.90;;
19585;SDS011;9939;49.246;9.106;2022-09-01T13:57:41;5.85;;;3.10;;
19585;SDS011;9939;49.246;9.106;2022-09-01T14:00:10;3.83;;;2.80;;
19585;SDS011;9939;49.246;9.106;2022-09-01T14:02:42;3.90;;;2.78;;
19585;SDS011;9939;49.246;9.106;2022-09-01T14:05:20;3.83;;;2.70;;
19585;SDS011;9939;49.246;9.106;2022-09-01T14:07:49;4.45;;;2.92;;
19585;SDS011;9939;49.246;9.106;2022-09-01T14:10:17;4.07;;;2.55;;
19585;SDS011;9939;49.246;9.106;2022-09-01T14:12:45;3.70;;;2.40;;
19585;SDS011;9939;49.246;9.106;2022-09-01T14:15:15;4.47;;;2.92;;
19585;SDS011;9939;49.246;9.106;2022-09-01T14:17:49;3.70;;;2.58;;
19585;SDS011;9939;49.246;9.106;2022-09-01T14:20:19;6.95;;;2.58;;
19585;SDS011;9939;49.246;9.106;2022-09-01T14:22:48;5.32;;;2.97;;
19585;SDS011;9939;49.246;9.106;2022-09-01T14:25:16;3.83;;;2.60;;
19585;SDS011;9939;49.246;9.106;2022-09-01T14:27:45;4.68;;;2.50;;
19585;SDS011;9939;49.246;9.106;2022-09-01T14:30:16;3.42;;;2.70;;
19585;SDS011;9939;49.246;9.106;2022-09-01T14:32:45;3.47;;;2.50;;
19585;SDS011;9939;49.246;9.106;2022-09-01T14:35:14;3.13;;;2.40;;
19585;SDS011;9939;49.246;9.106;2022-09-01T14:37:42;2.55;;;2.30;;
19585;SDS011;9939;49.246;9.106;2022-09-01T14:40:14;3.97;;;2.40;;
19585;SDS011;9939;49.246;9.106;2022-09-01T14:42:44;4.85;;;2.72;;
19585;SDS011;9939;49.246;9.106;2022-09-01T14:45:16;4.43;;;2.92;;
19585;SDS011;9939;49.246;9.106;2022-09-01T14:47:48;4.25;;;2.40;;
19585;SDS011;9939;49.246;9.106;2022-09-01T14:50:18;3.05;;;2.60;;
19585;SDS011;9939;49.246;9.106;2022-09-01T14:52:49;4.43;;;2.30;;
19585;SDS011;9939;49.246;9.106;2022-09-01T14:55:19;3.85;;;2.15;;
19585;SDS011;9939;49.246;9.106;2022-09-01T14:57:50;4.68;;;2.67;;
19585;SDS011;9939;49.246;9.106;2022-09-01T15:00:18;4.35;;;2.75;;
19585;SDS011;9939;49.246;9.106;2022-09-01T15:02:45;4.63;;;2.47;;
19585;SDS011;9939;49.246;9.106;2022-09-01T15:05:13;8.10;;;2.65;;
19585;SDS011;9939;49.246;9.106;2022-09-01T15:07:41;3.88;;;2.40;;
19585;SDS011;9939;49.246;9.106;2022-09-01T15:10:09;3.63;;;2.30;;
19585;SDS011;9939;49.246;9.106;2022-09-01T15:12:49;3.77;;;2.40;;
19585;SDS011;9939;49.246;9.106;2022-09-01T15:15:17;2.70;;;2.08;;
19585;SDS011;9939;49.246;9.106;2022-09-01T15:17:44;5.15;;;2.35;;
19585;SDS011;9939;49.246;9.106;2022-09-01T15:20:12;5.82;;;2.40;;
19585;SDS011;9939;49.246;9.106;2022-09-01T15:22:58;3.77;;;2.23;;
19585;SDS011;9939;49.246;9.106;2022-09-01T15:25:26;6.80;;;2.35;;
19585;SDS011;9939;49.246;9.106;2022-09-01T15:27:53;4.07;;;2.47;;
19585;SDS011;9939;49.246;9.106;2022-09-01T15:30:20;3.30;;;2.10;;
19585;SDS011;9939;49.246;9.106;2022-09-01T15:32:48;5.57;;;2.50;;
19585;SDS011;9939;49.246;9.106;2022-09-01T15:35:16;5.77;;;2.40;;
19585;SDS011;9939;49.246;9.106;2022-09-01T15:37:45;4.83;;;2.53;;
19585;SDS011;9939;49.246;9.106;2022-09-01T15:40:13;6.00;;;2.57;;
19585;SDS011;9939;49.246;9.106;2022-09-01T15:42:41;3.70;;;2.40;;
19585;SDS011;9939;49.246;9.106;2022-09-01T15:45:09;4.57;;;2.27;;
19585;SDS011;9939;49.246;9.106;2022-09-01T15:47:40;3.90;;;2.47;;
19585;SDS011;9939;49.246;9.106;2022-09-01T15:50:11;3.60;;;2.73;;
19585;SDS011;9939;49.246;9.106;2022-09-01T15:55:16;3.77;;;2.50;;
19585;SDS011;9939;49.246;9.106;2022-09-01T15:57:45;4.80;;;2.70;;
19585;SDS011;9939;49.246;9.106;2022-09-01T16:00:12;6.53;;;2.60;;
19585;SDS011;9939;49.246;9.106;2022-09-01T16:02:40;5.47;;;2.63;;
19585;SDS011;9939;49.246;9.106;2022-09-01T16:05:08;5.83;;;2.90;;
19585;SDS011;9939;49.246;9.106;2022-09-01T16:07:36;3.33;;;2.10;;
19585;SDS011;9939;49.246;9.106;2022-09-01T16:10:03;3.90;;;2.53;;
19585;SDS011;9939;49.246;9.106;2022-09-01T16:12:31;5.70;;;2.23;;
19585;SDS011;9939;49.246;9.106;2022-09-01T16:15:01;3.63;;;2.50;;
19585;SDS011;9939;49.246;9.106;2022-09-01T16:17:38;6.77;;;2.40;;
19585;SDS011;9939;49.246;9.106;2022-09-01T16:20:20;3.63;;;2.30;;
19585;SDS011;9939;49.246;9.106;2022-09-01T16:22:55;3.70;;;2.20;;
19585;SDS011;9939;49.246;9.106;2022-09-01T16:25:30;3.67;;;2.40;;
19585;SDS011;9939;49.246;9.106;2022-09-01T16:28:00;4.00;;;2.17;;
19585;SDS011;9939;49.246;9.106;2022-09-01T16:30:32;4.77;;;2.20;;
19585;SDS011;9939;49.246;9.106;2022-09-01T16:33:01;4.97;;;2.80;;
19585;SDS011;9939;49.246;9.106;2022-09-01T16:35:34;5.37;;;2.60;;